West Pownal, ME

6:50 PM EST on February 25, 2017 (GMT -0500)
North Yarmouth | | Change Station
Active Advisory: Dense Fog Advisory

Elev 141 ft 43.88 °N, 70.23 °W | Updated 14 minutes ago

Fog
Fog
46.7 °F
Feels Like 47 °F
N
2.0
Wind Variable Wind from SSW
Gusts 5.0 mph

Today
High -- | Low -- °F
--% Chance of Precip.
Yesterday
High -- | Low -- °F
Precip. -- in
Pressure 29.62 in
Visibility 0.2 miles
Clouds Overcast 300 ft
Windchill 47 °F
Dew Point 46 °F
Humidity 98%
Rainfall 0.00 in
Snow Depth Not available.
6:24 AM 5:24 PM
Waning Crescent, 0% visible
METAR KLEW 252256Z AUTO 15004KT 1/4SM -RA FG OVC003 08/08 A2957 RMK AO2 SLP031 P0000 T00830083
Pressure 29.62 in
Visibility 0.2 miles
Clouds Overcast 300 ft
Windchill 47 °F
Dew Point 46 °F
Humidity 98%
Rainfall 0.00 in
Snow Depth Not available.
6:24 AM 5:24 PM
Waning Crescent, 0% visible
METAR KLEW 252256Z AUTO 15004KT 1/4SM -RA FG OVC003 08/08 A2957 RMK AO2 SLP031 P0000 T00830083

Get Your Daily Forecast Email!

Thanks for signing up!

Be on the lookout for a verification email in your inbox.

You'll start receiving the daily forecast at 8 AM.

×

10-Day Weather Forecast

Almanac

Astronomy

Feb. 25, 2017 Rise Set
Actual Time
Civil Twilight
Nautical Twilight
Astronomical Twilight
Moon
Length of Visible Light
Length of Day
Tomorrow will be .
, % of the Moon is Illuminated

Today's Extremes

State Highs State Lows

Community

WunderPhotos

Upload Photos

1,962,540 photos uploaded!

WunderBlog® & News

Nearby

Air Quality

  Air Quality AQ Index Pollutant
Not available.

Snow Depth

Station Depth Elevation

Earthquake Activity

City Distance Mag. Time & Date
Minimum magnitude displayed is 2.5.

Coastal Water Temperatures

Place Temperature

Stations

Nearby Weather Stations

Station Location Temp. Windchill Dew Point Humidity Wind Precip. Elev Updated Type
                   

Watches & Warnings

Dense Fog Advisory
Issued: 6:08 PM EST Feb. 25, 2017 – National Weather Service

... Dense fog advisory in effect until 1 am EST Sunday...

The National Weather Service in gray has issued a dense fog
advisory... which is in effect until 1 am EST Sunday.

* Visibilities... one quarter mile or less at times.

* Timing... through about midnight.

* Impacts... a dense fog advisory means visibilities will
frequently be reduced to less than one quarter mile. If
driving... slow down... use your low beam headlights... and leave
plenty of distance ahead of you.

Precautionary/preparedness actions...

A dense fog advisory means visibilities will frequently be
reduced to less than one quarter mile.